Time;durP1;ratioP1;P1;durP2;ratioP2;P2;SDS_P1;SDS_P2;PMS_P1;PMS_P2;Temp;Humidity;BMP_temperature;BMP_pressure;BME280_temperature;BME280_humidity;BME280_pressure;Samples;Min_cycle;Max_cycle;Signal;HPM_P1;HPM_P2
2022/09/27 00:00:40;;;;;;;17.48;11.50;;;;;;;9.34;100.00;98663.53;5115049;28;20484;-74
2022/09/27 00:03:30;;;;;;;19.33;11.23;;;;;;;9.31;100.00;98656.50;5114882;28;20199;-73
2022/09/27 00:06:04;;;;;;;19.80;12.27;;;;;;;9.16;100.00;98666.53;5115319;27;20051;-74
2022/09/27 00:08:32;;;;;;;19.42;11.43;;;;;;;9.22;100.00;98660.72;5116345;28;20043;-74
2022/09/27 00:11:01;;;;;;;18.85;11.23;;;;;;;9.26;100.00;98667.63;5114557;28;20481;-74
2022/09/27 00:13:29;;;;;;;22.33;12.18;;;;;;;9.22;100.00;98654.47;5102283;28;20052;-75
2022/09/27 00:15:57;;;;;;;20.33;11.93;;;;;;;9.18;100.00;98652.97;5107864;28;20127;-74
2022/09/27 00:18:25;;;;;;;19.38;11.70;;;;;;;9.46;100.00;98657.25;5103064;28;20176;-73
2022/09/27 00:20:54;;;;;;;20.27;12.07;;;;;;;9.49;100.00;98645.41;5104695;28;20050;-74
2022/09/27 00:23:21;;;;;;;20.30;12.05;;;;;;;9.51;100.00;98636.25;5113612;27;20043;-73
2022/09/27 00:25:56;;;;;;;20.70;12.15;;;;;;;9.49;100.00;98635.47;5113632;28;20047;-74
2022/09/27 00:28:24;;;;;;;19.08;11.70;;;;;;;9.69;100.00;98636.75;5113657;28;20050;-74
2022/09/27 00:30:52;;;;;;;21.42;11.90;;;;;;;9.62;100.00;98626.53;5113923;28;20096;-74
2022/09/27 00:33:19;;;;;;;17.48;11.30;;;;;;;9.66;100.00;98625.34;5113955;27;20143;-73
2022/09/27 00:35:47;;;;;;;19.05;11.82;;;;;;;9.69;100.00;98623.28;5114518;28;20048;-73
2022/09/27 00:38:16;;;;;;;19.75;11.68;;;;;;;9.67;100.00;98621.69;5114606;27;20044;-74
2022/09/27 00:40:43;;;;;;;20.33;11.25;;;;;;;9.74;100.00;98620.25;5114178;28;20039;-74
2022/09/27 00:43:17;;;;;;;20.73;11.50;;;;;;;9.63;100.00;98622.88;5114058;27;20051;-74
2022/09/27 00:45:47;;;;;;;19.08;11.52;;;;;;;9.69;100.00;98619.72;5116466;27;20100;-74
2022/09/27 00:48:17;;;;;;;20.23;11.30;;;;;;;9.75;100.00;98623.81;5114444;28;20583;-73
2022/09/27 00:50:45;;;;;;;17.65;11.25;;;;;;;9.76;100.00;98621.00;5114129;28;20047;-73
2022/09/27 00:53:18;;;;;;;18.95;11.40;;;;;;;9.63;100.00;98621.03;5114390;27;20381;-73
2022/09/27 00:55:50;;;;;;;19.52;11.57;;;;;;;9.55;100.00;98608.09;5114346;27;20048;-74
2022/09/27 00:58:19;;;;;;;22.70;11.95;;;;;;;9.68;100.00;98610.75;5114178;28;20047;-75
2022/09/27 01:00:49;;;;;;;23.40;12.23;;;;;;;9.79;100.00;98607.31;5113957;27;20048;-74
2022/09/27 01:03:26;;;;;;;20.52;11.50;;;;;;;9.84;100.00;98604.28;5113644;28;20050;-73
2022/09/27 01:05:55;;;;;;;19.40;11.65;;;;;;;9.82;100.00;98601.69;5115471;28;20104;-74
2022/09/27 01:08:23;;;;;;;21.98;11.25;;;;;;;9.88;100.00;98599.50;5114098;27;20044;-74
2022/09/27 01:10:57;;;;;;;22.40;12.80;;;;;;;9.86;100.00;98589.69;5113542;28;20047;-74
2022/09/27 01:13:32;;;;;;;22.67;12.07;;;;;;;9.88;100.00;98581.50;5115035;27;20493;-74
2022/09/27 01:16:04;;;;;;;20.20;11.07;;;;;;;9.79;100.00;98583.03;5114632;28;20055;-74
2022/09/27 01:18:36;;;;;;;23.10;12.10;;;;;;;9.73;100.00;98572.69;5115142;28;20088;-74
2022/09/27 01:21:28;;;;;;;22.35;11.93;;;;;;;9.51;100.00;98570.69;5113656;28;20054;-74
2022/09/27 01:24:06;;;;;;;22.30;12.38;;;;;;;9.54;100.00;98576.72;5115199;28;20062;-74
2022/09/27 01:27:10;;;;;;;19.23;11.52;;;;;;;9.54;100.00;98575.88;5114847;28;20122;-74
2022/09/27 01:29:50;;;;;;;19.38;11.20;;;;;;;9.64;100.00;98576.06;5110570;28;20062;-75
2022/09/27 01:32:23;;;;;;;18.02;10.70;;;;;;;9.63;100.00;98577.88;5113548;28;20130;-73
2022/09/27 01:34:58;;;;;;;18.70;11.35;;;;;;;9.64;100.00;98570.69;5114621;27;20108;-73
2022/09/27 01:37:29;;;;;;;19.97;11.17;;;;;;;9.65;100.00;98567.00;5114699;27;20051;-74
2022/09/27 01:40:01;;;;;;;19.48;10.68;;;;;;;9.67;100.00;98568.59;5113880;28;20040;-73
2022/09/27 01:42:31;;;;;;;18.50;11.35;;;;;;;9.66;100.00;98563.34;5115317;27;20043;-74
2022/09/27 01:45:01;;;;;;;19.77;10.90;;;;;;;9.54;100.00;98563.22;5119975;27;20538;-74
2022/09/27 01:47:35;;;;;;;19.48;11.18;;;;;;;9.61;100.00;98563.66;5120004;27;20096;-74
2022/09/27 01:50:05;;;;;;;16.63;10.18;;;;;;;9.58;100.00;98561.19;5120415;28;20048;-74
2022/09/27 01:52:38;;;;;;;17.35;10.73;;;;;;;9.54;100.00;98557.84;5119957;28;20043;-74
2022/09/27 01:55:08;;;;;;;18.45;10.98;;;;;;;9.51;100.00;98562.63;5121334;28;20055;-74
2022/09/27 01:57:39;;;;;;;19.38;10.80;;;;;;;9.55;100.00;98564.97;5120691;27;20126;-73
2022/09/27 02:00:08;;;;;;;19.92;10.63;;;;;;;9.50;100.00;98572.53;5120648;28;20047;-74
2022/09/27 02:02:40;;;;;;;21.70;11.38;;;;;;;9.49;100.00;98570.78;5119795;27;20165;-74
2022/09/27 02:05:12;;;;;;;19.27;11.48;;;;;;;9.54;100.00;98573.16;5119094;27;20097;-74
2022/09/27 02:07:43;;;;;;;22.65;11.88;;;;;;;9.38;100.00;98578.81;5120509;28;20043;-74
2022/09/27 02:10:15;;;;;;;21.70;11.82;;;;;;;9.63;100.00;98569.81;5120378;27;20043;-74
2022/09/27 02:12:48;;;;;;;21.00;12.30;;;;;;;9.64;100.00;98576.06;5120154;27;20044;-73
2022/09/27 02:15:16;;;;;;;21.77;11.73;;;;;;;9.67;100.00;98574.00;5121197;27;20089;-74
2022/09/27 02:17:48;;;;;;;20.85;12.15;;;;;;;9.69;100.00;98565.81;5119772;27;20553;-75
2022/09/27 02:20:20;;;;;;;22.70;12.75;;;;;;;9.67;100.00;98574.00;5120617;28;20047;-74
2022/09/27 02:22:50;;;;;;;19.83;12.00;;;;;;;9.62;100.00;98564.53;5120609;28;20047;-74
2022/09/27 02:25:21;;;;;;;20.20;11.60;;;;;;;9.64;100.00;98562.59;5120842;28;20051;-74
2022/09/27 02:27:54;;;;;;;20.80;12.20;;;;;;;9.60;100.00;98566.50;5120074;28;20047;-74
2022/09/27 02:30:22;;;;;;;20.77;12.15;;;;;;;9.62;100.00;98560.00;5119644;27;20050;-73
2022/09/27 02:32:52;;;;;;;21.05;11.77;;;;;;;9.67;100.00;98556.97;5119765;28;20043;-74
2022/09/27 02:35:23;;;;;;;22.10;11.27;;;;;;;9.65;100.00;98564.31;5119879;28;20051;-74
2022/09/27 02:37:51;;;;;;;22.08;11.48;;;;;;;9.57;100.00;98563.00;5121061;28;20115;-73
2022/09/27 02:40:19;;;;;;;21.27;10.90;;;;;;;9.55;100.00;98556.03;5119827;27;20484;-74
2022/09/27 02:42:47;;;;;;;21.27;12.10;;;;;;;9.67;100.00;98570.44;5119658;27;20043;-74
2022/09/27 02:45:16;;;;;;;18.63;11.65;;;;;;;9.67;100.00;98556.97;5119877;28;20051;-74
2022/09/27 02:48:09;;;;;;;26.25;11.82;;;;;;;9.55;100.00;98561.41;5119720;28;20043;-74
2022/09/27 02:50:56;;;;;;;23.73;11.27;;;;;;;9.74;100.00;98562.75;5116768;27;20577;-74
2022/09/27 02:53:32;;;;;;;23.23;11.75;;;;;;;9.84;100.00;98563.81;5120416;27;20144;-73
2022/09/27 02:56:04;;;;;;;21.88;11.43;;;;;;;9.91;100.00;98566.91;5118096;28;20100;-73
2022/09/27 02:58:42;;;;;;;20.30;11.57;;;;;;;9.93;100.00;98565.84;5118131;27;20069;-73
2022/09/27 03:01:13;;;;;;;20.38;11.55;;;;;;;9.93;100.00;98563.13;5116385;27;20100;-73
2022/09/27 03:03:47;;;;;;;21.50;12.10;;;;;;;9.97;100.00;98561.94;5116335;28;20043;-74
2022/09/27 03:06:17;;;;;;;25.20;11.90;;;;;;;10.00;100.00;98567.09;5116969;28;20043;-74
2022/09/27 03:08:46;;;;;;;29.67;12.63;;;;;;;9.99;100.00;98559.97;5116559;28;20409;-74
2022/09/27 03:11:13;;;;;;;23.40;11.90;;;;;;;10.00;100.00;98564.41;5116048;27;20064;-74
2022/09/27 03:13:41;;;;;;;22.63;11.82;;;;;;;10.00;100.00;98563.56;5116205;28;20044;-74
2022/09/27 03:16:08;;;;;;;22.50;11.65;;;;;;;10.04;100.00;98558.78;5115853;28;20047;-74
2022/09/27 03:18:36;;;;;;;23.02;12.45;;;;;;;9.97;100.00;98561.94;5115900;28;20039;-74
2022/09/27 03:21:05;;;;;;;22.48;11.93;;;;;;;9.84;100.00;98558.44;5115952;28;20047;-74
2022/09/27 03:23:32;;;;;;;21.23;12.13;;;;;;;9.91;100.00;98554.31;5115802;28;20048;-74
2022/09/27 03:26:00;;;;;;;25.73;12.07;;;;;;;9.91;100.00;98554.31;5115862;28;20396;-73
2022/09/27 03:28:28;;;;;;;23.05;12.45;;;;;;;9.91;100.00;98559.69;5116018;27;20040;-74
2022/09/27 03:30:56;;;;;;;22.42;11.95;;;;;;;9.98;100.00;98552.88;5115686;28;20067;-75
2022/09/27 03:33:23;;;;;;;27.23;12.65;;;;;;;9.95;100.00;98555.78;5115508;28;20055;-74
2022/09/27 03:35:51;;;;;;;24.95;12.60;;;;;;;9.94;100.00;98547.81;5115254;28;20561;-73
2022/09/27 03:38:20;;;;;;;26.75;14.05;;;;;;;9.98;100.00;98544.78;5114515;28;20051;-74
2022/09/27 03:40:47;;;;;;;23.83;12.88;;;;;;;9.95;100.00;98544.13;5115279;27;20488;-75
2022/09/27 03:43:15;;;;;;;23.77;12.73;;;;;;;10.00;100.00;98542.81;5115454;28;20047;-74
2022/09/27 03:45:44;;;;;;;23.48;12.70;;;;;;;10.02;100.00;98537.31;5115683;28;20055;-74
2022/09/27 03:48:12;;;;;;;24.50;11.85;;;;;;;10.03;100.00;98540.88;5115555;28;20492;-73
2022/09/27 03:50:39;;;;;;;24.27;12.70;;;;;;;10.00;100.00;98531.19;5115087;28;20048;-74
2022/09/27 03:53:07;;;;;;;32.72;13.73;;;;;;;10.02;100.00;98534.63;5115469;27;20048;-74
2022/09/27 03:55:36;;;;;;;23.85;11.93;;;;;;;10.04;100.00;98531.78;5115474;27;20445;-74
2022/09/27 03:58:04;;;;;;;28.83;13.02;;;;;;;10.14;100.00;98522.91;5115410;27;20043;-74
2022/09/27 04:00:36;;;;;;;175.90;52.42;;;;;;;10.18;100.00;98533.47;5115301;28;20047;-74
2022/09/27 04:03:04;;;;;;;49.15;24.27;;;;;;;10.12;100.00;98518.59;5114641;27;20043;-74
2022/09/27 04:05:31;;;;;;;26.98;13.73;;;;;;;10.14;100.00;98519.31;5114457;28;20116;-73
2022/09/27 04:07:59;;;;;;;28.85;12.80;;;;;;;10.14;100.00;98524.72;5106730;28;20044;-74
2022/09/27 04:10:26;;;;;;;29.77;14.02;;;;;;;10.08;100.00;98507.19;5104688;28;20055;-74
2022/09/27 04:12:56;;;;;;;28.50;13.68;;;;;;;10.07;100.00;98510.84;5114200;28;20051;-74
2022/09/27 04:15:23;;;;;;;27.73;13.55;;;;;;;10.09;100.00;98508.91;5114213;28;20764;-74
2022/09/27 04:17:51;;;;;;;26.13;12.98;;;;;;;10.09;100.00;98518.81;5114856;28;20047;-74
2022/09/27 04:20:19;;;;;;;27.23;13.02;;;;;;;10.06;100.00;98519.94;5114514;27;20477;-73
2022/09/27 04:22:46;;;;;;;29.73;16.08;;;;;;;10.18;100.00;98523.50;5114921;28;20046;-73
2022/09/27 04:25:14;;;;;;;39.38;18.58;;;;;;;10.10;100.00;98520.53;5114790;28;20043;-77
2022/09/27 04:27:45;;;;;;;37.38;17.15;;;;;;;10.18;100.00;98525.38;5114528;27;20048;-74
2022/09/27 04:30:15;;;;;;;30.73;15.43;;;;;;;10.11;100.00;98519.56;5110872;28;20044;-73
2022/09/27 04:32:43;;;;;;;27.83;14.80;;;;;;;10.13;100.00;98510.38;5111867;28;20039;-73
2022/09/27 04:37:56;;;;;;;31.20;14.20;;;;;;;10.19;100.00;98508.19;5112737;28;20044;-75
2022/09/27 04:40:24;;;;;;;25.30;13.75;;;;;;;10.16;100.00;98514.69;5110798;28;20055;-73
2022/09/27 04:42:51;;;;;;;27.10;14.05;;;;;;;10.08;100.00;98515.28;5110822;27;20501;-75
2022/09/27 04:45:21;;;;;;;27.13;14.23;;;;;;;10.06;100.00;98506.44;5110855;27;20101;-75
2022/09/27 04:47:49;;;;;;;26.65;13.05;;;;;;;10.12;100.00;98513.19;5111037;27;20492;-75
2022/09/27 04:50:18;;;;;;;26.30;13.43;;;;;;;10.11;100.00;98506.94;5110462;28;20040;-75
2022/09/27 04:52:51;;;;;;;27.25;13.00;;;;;;;10.21;100.00;98501.72;5110272;28;20051;-75
2022/09/27 04:55:19;;;;;;;23.73;12.63;;;;;;;10.32;100.00;98502.72;5112053;27;20043;-75
2022/09/27 04:57:46;;;;;;;24.65;13.00;;;;;;;10.27;100.00;98505.78;5110379;28;20126;-74
2022/09/27 05:00:15;;;;;;;24.05;12.23;;;;;;;10.18;100.00;98504.63;5110517;28;20044;-76
2022/09/27 05:02:45;;;;;;;23.77;12.70;;;;;;;10.19;100.00;98497.41;5110038;28;20660;-74
2022/09/27 05:05:12;;;;;;;27.50;13.02;;;;;;;10.26;100.00;98501.34;5110481;28;20191;-75
2022/09/27 05:07:41;;;;;;;25.98;12.85;;;;;;;10.22;100.00;98502.56;5110628;27;20043;-75
2022/09/27 05:10:09;;;;;;;25.85;13.18;;;;;;;10.31;100.00;98498.31;5112130;28;20539;-75
2022/09/27 05:12:37;;;;;;;32.85;18.50;;;;;;;10.30;100.00;98494.75;5113408;28;20485;-76
2022/09/27 05:15:06;;;;;;;28.58;14.52;;;;;;;10.17;100.00;98502.06;5113418;28;20051;-74
2022/09/27 05:17:33;;;;;;;29.77;14.00;;;;;;;10.22;100.00;98497.16;5112935;27;20047;-74
2022/09/27 05:20:02;;;;;;;25.83;13.02;;;;;;;10.12;100.00;98503.28;5113460;28;20047;-74
2022/09/27 05:22:30;;;;;;;28.40;14.02;;;;;;;10.31;100.00;98507.25;5113849;27;20044;-74
2022/09/27 05:24:57;;;;;;;28.85;14.25;;;;;;;10.32;100.00;98503.56;5113492;28;20047;-75
2022/09/27 05:27:25;;;;;;;29.48;14.52;;;;;;;10.29;100.00;98510.09;5113729;28;20126;-74
2022/09/27 05:29:54;;;;;;;27.10;13.52;;;;;;;10.38;100.00;98500.41;5113798;27;20092;-75
2022/09/27 05:32:21;;;;;;;29.25;13.70;;;;;;;10.36;100.00;98502.34;5113302;28;20063;-75
2022/09/27 05:34:52;;;;;;;29.95;14.70;;;;;;;10.34;100.00;98503.47;5113678;28;20044;-74
2022/09/27 05:37:21;;;;;;;27.77;13.55;;;;;;;10.29;100.00;98504.69;5114715;28;20043;-75
2022/09/27 05:39:48;;;;;;;26.70;13.48;;;;;;;10.38;100.00;98503.09;5113470;28;20043;-75
2022/09/27 05:42:16;;;;;;;27.42;14.30;;;;;;;10.41;100.00;98502.94;5113361;28;20092;-76
2022/09/27 05:44:45;;;;;;;30.75;14.60;;;;;;;10.51;100.00;98507.59;5113460;28;20044;-75
2022/09/27 05:47:14;;;;;;;26.42;13.90;;;;;;;10.53;100.00;98505.66;5113273;28;20043;-75
2022/09/27 05:49:42;;;;;;;25.30;13.07;;;;;;;10.61;100.00;98503.19;5113416;28;20039;-76
2022/09/27 05:52:09;;;;;;;30.00;14.10;;;;;;;10.58;100.00;98504.28;5113590;27;20065;-74
2022/09/27 05:54:38;;;;;;;28.90;14.18;;;;;;;10.60;100.00;98500.59;5113498;28;20047;-74
2022/09/27 05:57:07;;;;;;;28.52;13.77;;;;;;;10.60;100.00;98509.59;5113423;27;20396;-75
2022/09/27 05:59:35;;;;;;;27.70;13.50;;;;;;;10.52;100.00;98504.78;5113409;27;20118;-74
2022/09/27 06:02:02;;;;;;;26.73;13.63;;;;;;;10.57;100.00;98507.13;5112746;28;20047;-74
2022/09/27 06:04:30;;;;;;;27.35;14.00;;;;;;;10.70;100.00;98510.59;5113358;28;20043;-74
2022/09/27 06:06:58;;;;;;;24.25;12.80;;;;;;;10.70;100.00;98507.03;5113384;27;20067;-74
2022/09/27 06:09:27;;;;;;;29.17;14.35;;;;;;;10.76;100.00;98495.75;5113365;28;20100;-75
2022/09/27 06:11:55;;;;;;;29.02;13.93;;;;;;;10.77;100.00;98499.28;5113325;27;20404;-76
2022/09/27 06:14:23;;;;;;;26.98;13.88;;;;;;;10.77;100.00;98499.28;5113298;27;20122;-74
2022/09/27 06:16:53;;;;;;;27.55;14.32;;;;;;;10.89;100.00;98495.66;5112440;28;20500;-75
2022/09/27 06:19:21;;;;;;;26.25;14.05;;;;;;;11.02;100.00;98504.47;5114132;27;20044;-75
2022/09/27 06:21:50;;;;;;;23.33;13.35;;;;;;;10.93;100.00;98497.13;5109568;28;20039;-75
2022/09/27 06:24:17;;;;;;;22.42;12.77;;;;;;;10.89;100.00;98501.03;5109539;28;20047;-74
2022/09/27 06:26:45;;;;;;;25.60;13.13;;;;;;;10.93;100.00;98499.81;5109405;28;20500;-74
2022/09/27 06:29:14;;;;;;;27.25;14.18;;;;;;;10.92;100.00;98498.09;5109917;28;20055;-74
2022/09/27 06:31:41;;;;;;;25.75;13.65;;;;;;;10.93;100.00;98513.31;5109157;28;20117;-75
2022/09/27 06:34:09;;;;;;;26.35;13.75;;;;;;;10.95;100.00;98510.50;5104806;28;20044;-74
2022/09/27 06:36:36;;;;;;;25.60;13.98;;;;;;;11.01;100.00;98513.56;5112171;28;20089;-75
2022/09/27 06:39:04;;;;;;;24.75;13.48;;;;;;;11.10;100.00;98513.81;5109694;28;20070;-75
2022/09/27 06:41:32;;;;;;;25.60;13.65;;;;;;;11.12;100.00;98517.25;5109675;28;20036;-74
2022/09/27 06:44:00;;;;;;;24.42;13.90;;;;;;;11.09;100.00;98522.91;5105075;28;20100;-75
2022/09/27 06:46:29;;;;;;;26.75;14.20;;;;;;;10.97;100.00;98517.50;5111169;28;20040;-74
2022/09/27 06:48:56;;;;;;;27.55;15.13;;;;;;;10.93;100.00;98518.72;5112781;28;20072;-74
2022/09/27 06:51:24;;;;;;;28.55;14.15;;;;;;;11.00;100.00;98519.09;5113019;28;20119;-74
2022/09/27 06:53:52;;;;;;;26.27;13.95;;;;;;;11.03;100.00;98526.97;5112934;27;20044;-74
2022/09/27 06:56:19;;;;;;;25.80;14.10;;;;;;;11.15;100.00;98512.47;5098102;28;20032;-77
2022/09/27 07:01:35;;;;;;;24.38;13.68;;;;;;;11.30;100.00;98520.31;5093488;28;20382;-74
2022/09/27 07:04:02;;;;;;;24.90;13.15;;;;;;;11.34;100.00;98510.13;5096907;28;20055;-74
2022/09/27 07:06:30;;;;;;;24.08;13.27;;;;;;;11.16;100.00;98507.91;5096417;28;20051;-74
2022/09/27 07:08:57;;;;;;;25.67;13.30;;;;;;;11.19;100.00;98499.56;5096421;28;20039;-75
2022/09/27 07:11:25;;;;;;;25.67;13.90;;;;;;;11.27;100.00;98502.53;5108148;28;20047;-74
2022/09/27 07:13:52;;;;;;;25.85;14.15;;;;;;;11.65;100.00;98502.25;5112243;27;20067;-74
2022/09/27 07:16:20;;;;;;;25.20;13.90;;;;;;;11.40;100.00;98490.72;5101541;28;20071;-73
2022/09/27 07:18:50;;;;;;;23.45;13.60;;;;;;;11.27;100.00;98497.13;5102502;28;20040;-74
2022/09/27 07:21:17;;;;;;;23.42;13.43;;;;;;;11.29;100.00;98494.28;5098056;28;20489;-74
2022/09/27 07:23:45;;;;;;;24.80;13.45;;;;;;;11.24;100.00;98494.66;5098092;28;20048;-74
2022/09/27 07:26:13;;;;;;;22.30;13.13;;;;;;;11.28;100.00;98495.25;5107331;28;20420;-74
2022/09/27 07:28:41;;;;;;;24.15;13.52;;;;;;;11.24;100.00;98502.78;5106684;27;20127;-74
2022/09/27 07:31:09;;;;;;;24.85;14.27;;;;;;;11.27;100.00;98498.94;5099997;27;20039;-75
2022/09/27 07:33:38;;;;;;;25.65;14.55;;;;;;;11.37;100.00;98493.66;5100100;28;20074;-74
2022/09/27 07:36:13;;;;;;;23.48;13.32;;;;;;;11.53;100.00;98504.94;5104797;28;20043;-75
2022/09/27 07:38:40;;;;;;;27.10;14.38;;;;;;;11.58;100.00;98502.72;5114920;28;20039;-75
2022/09/27 07:41:09;;;;;;;27.10;13.68;;;;;;;11.73;100.00;98494.34;5113297;27;20103;-74
2022/09/27 07:43:36;;;;;;;24.17;13.45;;;;;;;11.66;100.00;98499.41;5113841;27;20046;-75
2022/09/27 07:46:04;;;;;;;24.05;14.05;;;;;;;11.68;100.00;98500.13;5115668;27;20051;-73
2022/09/27 07:48:31;;;;;;;26.08;13.63;;;;;;;11.83;100.00;98500.72;5111269;27;20405;-75
2022/09/27 07:50:59;;;;;;;24.45;12.57;;;;;;;11.92;100.00;98503.63;5110235;27;20044;-74
2022/09/27 07:53:28;;;;;;;25.85;13.63;;;;;;;12.06;100.00;98497.09;5113944;27;20048;-75
2022/09/27 07:55:56;;;;;;;25.05;13.60;;;;;;;12.20;100.00;98491.38;5114010;27;20039;-75
2022/09/27 07:58:23;;;;;;;21.95;13.15;;;;;;;12.40;100.00;98486.13;5113611;27;20085;-75
2022/09/27 08:00:51;;;;;;;24.00;12.90;;;;;;;12.68;100.00;98470.22;5113783;28;20400;-74
2022/09/27 08:03:18;;;;;;;23.92;13.20;;;;;;;12.88;100.00;98474.72;5113969;27;20515;-74
2022/09/27 08:05:47;;;;;;;23.40;12.77;;;;;;;12.90;100.00;98470.03;5113658;28;20050;-74
2022/09/27 08:08:15;;;;;;;22.65;12.48;;;;;;;12.97;100.00;98473.06;5113695;27;20475;-74
2022/09/27 08:10:46;;;;;;;20.73;11.73;;;;;;;13.10;100.00;98469.25;5110504;28;20056;-73
2022/09/27 08:13:18;;;;;;;20.20;11.65;;;;;;;13.10;100.00;98464.72;5105956;28;20052;-74
2022/09/27 08:15:47;;;;;;;21.45;11.05;;;;;;;13.21;100.00;98463.72;5122752;27;20069;-74
2022/09/27 08:18:15;;;;;;;23.40;11.23;;;;;;;13.19;100.00;98457.59;5110966;28;20047;-74
2022/09/27 08:20:42;;;;;;;19.33;10.57;;;;;;;13.35;100.00;98453.53;5111661;27;20051;-75
2022/09/27 08:23:10;;;;;;;17.33;9.95;;;;;;;13.55;100.00;98446.31;5111411;28;20077;-74
2022/09/27 08:25:38;;;;;;;16.08;8.88;;;;;;;13.58;100.00;98438.75;5110797;28;20063;-74
2022/09/27 08:28:07;;;;;;;15.25;8.48;;;;;;;13.80;100.00;98425.94;5111324;27;20123;-74
2022/09/27 08:30:35;;;;;;;15.80;8.13;;;;;;;13.80;100.00;98431.38;5111101;27;20044;-74
2022/09/27 08:33:03;;;;;;;14.88;8.20;;;;;;;14.07;100.00;98434.38;5111266;27;20047;-75
2022/09/27 08:35:32;;;;;;;15.23;8.80;;;;;;;14.08;100.00;98425.22;5105201;27;20507;-75
2022/09/27 08:38:01;;;;;;;16.20;8.85;;;;;;;13.91;100.00;98427.66;5098453;28;20040;-74
2022/09/27 08:40:37;;;;;;;15.73;8.32;;;;;;;13.82;100.00;98432.09;5098120;28;20040;-74
2022/09/27 08:43:12;;;;;;;14.05;8.13;;;;;;;14.13;100.00;98422.94;5116884;27;20039;-74
2022/09/27 08:45:46;;;;;;;14.47;8.27;;;;;;;14.28;100.00;98428.78;5125982;27;20043;-74
2022/09/27 08:48:16;;;;;;;14.38;7.95;;;;;;;14.38;100.00;98426.91;5111239;28;20309;-74
2022/09/27 08:50:46;;;;;;;15.13;8.30;;;;;;;14.07;100.00;98432.50;5103078;28;20051;-74
2022/09/27 08:53:19;;;;;;;14.27;7.70;;;;;;;14.21;100.00;98436.63;5096957;28;20055;-74
2022/09/27 08:55:49;;;;;;;14.88;8.35;;;;;;;14.40;100.00;98443.91;5091658;28;20040;-74
2022/09/27 08:58:21;;;;;;;13.32;7.57;;;;;;;14.07;100.00;98437.09;5104928;27;20476;-74
2022/09/27 09:00:50;;;;;;;13.15;7.50;;;;;;;14.06;100.00;98438.94;5101121;28;20035;-74
2022/09/27 09:03:20;;;;;;;14.60;7.28;;;;;;;14.07;100.00;98435.22;5101303;28;20044;-74
2022/09/27 09:05:56;;;;;;;12.75;6.82;;;;;;;14.46;100.00;98429.75;5089836;28;20060;-75
2022/09/27 09:08:31;;;;;;;11.90;6.57;;;;;;;14.44;100.00;98433.63;5090631;28;20039;-74
2022/09/27 09:14:08;;;;;;;11.52;6.13;;;;;;;14.36;100.00;98430.78;5113852;28;20044;-74
2022/09/27 09:16:43;;;;;;;12.45;6.78;;;;;;;14.36;100.00;98436.22;5119484;27;20051;-74
2022/09/27 09:19:22;;;;;;;13.25;6.78;;;;;;;14.30;100.00;98441.22;5115691;27;20096;-75
2022/09/27 09:21:54;;;;;;;13.80;7.60;;;;;;;14.36;100.00;98447.06;5113613;27;20106;-74
2022/09/27 09:24:38;;;;;;;17.55;11.23;;;;;;;14.57;100.00;98453.16;5115546;27;20561;-74
2022/09/27 09:27:13;;;;;;;12.77;6.90;;;;;;;14.57;100.00;98444.19;5099667;28;20059;-75
2022/09/27 09:30:01;;;;;;;12.25;6.68;;;;;;;14.63;100.00;98446.31;5107056;28;20416;-75
2022/09/27 09:32:38;;;;;;;12.57;6.80;;;;;;;14.52;100.00;98451.91;5112130;28;20411;-76
2022/09/27 09:35:12;;;;;;;12.05;7.00;;;;;;;14.51;100.00;98445.63;5115199;28;20054;-75
2022/09/27 09:37:43;;;;;;;12.27;7.15;;;;;;;14.30;100.00;98446.66;5113178;28;20051;-74
2022/09/27 09:40:18;;;;;;;15.00;6.45;;;;;;;14.07;100.00;98456.94;5113841;28;20400;-75
2022/09/27 09:42:48;;;;;;;13.18;6.65;;;;;;;14.07;100.00;98456.94;5114054;28;20074;-74
2022/09/27 09:45:20;;;;;;;12.27;6.70;;;;;;;14.09;100.00;98456.81;5114868;27;20047;-75
2022/09/27 09:47:53;;;;;;;13.55;7.28;;;;;;;14.02;100.00;98448.34;5115289;28;20055;-74
2022/09/27 09:50:25;;;;;;;13.30;7.80;;;;;;;14.01;100.00;98452.94;5113064;27;20066;-75
2022/09/27 09:52:55;;;;;;;15.75;8.18;;;;;;;13.84;100.00;98451.78;5108450;28;20438;-75
2022/09/27 09:55:25;;;;;;;17.02;9.30;;;;;;;13.80;100.00;98463.06;5112403;28;20044;-76
2022/09/27 09:58:02;;;;;;;13.68;7.55;;;;;;;13.80;100.00;98455.78;5115123;28;20047;-75
2022/09/27 10:00:31;;;;;;;12.57;7.15;;;;;;;13.76;100.00;98452.50;5115115;28;20043;-75
2022/09/27 10:03:00;;;;;;;12.32;7.00;;;;;;;13.76;100.00;98451.66;5113355;28;20409;-75
2022/09/27 10:05:28;;;;;;;15.05;8.07;;;;;;;13.73;100.00;98446.50;5115713;28;20138;-75
2022/09/27 10:07:58;;;;;;;16.17;7.97;;;;;;;13.78;100.00;98444.22;5117245;28;20051;-75
2022/09/27 10:10:25;;;;;;;14.00;7.45;;;;;;;13.76;100.00;98446.22;5117322;27;20040;-75
2022/09/27 10:12:53;;;;;;;13.38;7.00;;;;;;;13.72;100.00;98440.19;5117481;28;20462;-76
2022/09/27 10:15:23;;;;;;;12.35;6.93;;;;;;;13.78;100.00;98444.22;5117084;28;20048;-75
2022/09/27 10:17:55;;;;;;;11.52;6.55;;;;;;;13.74;100.00;98450.94;5117192;28;20051;-75
2022/09/27 10:20:30;;;;;;;11.25;6.13;;;;;;;13.74;100.00;98440.06;5119057;27;20114;-75
2022/09/27 10:23:04;;;;;;;12.65;6.80;;;;;;;13.82;100.00;98423.06;5117212;27;20059;-74
2022/09/27 10:25:51;;;;;;;13.88;6.60;;;;;;;13.76;100.00;98424.50;5116941;28;20067;-75
2022/09/27 10:28:36;;;;;;;11.18;6.47;;;;;;;13.74;100.00;98410.22;5117399;27;20118;-74
2022/09/27 10:31:06;;;;;;;12.93;7.35;;;;;;;13.99;100.00;98413.34;5117337;27;20043;-75
2022/09/27 10:33:37;;;;;;;13.43;6.68;;;;;;;14.07;100.00;98405.34;5116778;27;20051;-75
2022/09/27 10:36:07;;;;;;;12.52;6.70;;;;;;;14.07;100.00;98405.34;5118012;28;20047;-75
2022/09/27 10:38:35;;;;;;;13.50;7.25;;;;;;;13.86;100.00;98409.09;5116833;27;20044;-75
2022/09/27 10:41:17;;;;;;;15.00;6.82;;;;;;;13.86;100.00;98409.09;5113612;28;20052;-75
2022/09/27 10:43:45;;;;;;;14.50;7.80;;;;;;;13.88;100.00;98398.94;5097376;28;20127;-74
2022/09/27 10:46:23;;;;;;;12.52;7.15;;;;;;;13.77;100.00;98405.34;5112992;28;20044;-75
2022/09/27 10:49:08;;;;;;;12.57;7.40;;;;;;;13.85;100.00;98403.78;5102526;28;20099;-74
2022/09/27 10:51:36;;;;;;;12.25;7.15;;;;;;;13.64;100.00;98407.50;5104710;28;20059;-76
2022/09/27 10:54:05;;;;;;;11.77;7.35;;;;;;;13.79;100.00;98418.78;5113426;28;20141;-76
2022/09/27 10:56:34;;;;;;;12.52;7.53;;;;;;;13.65;100.00;98405.63;5110806;28;20044;-76
2022/09/27 10:59:02;;;;;;;12.82;7.63;;;;;;;13.86;100.00;98402.78;5113262;28;20047;-76
2022/09/27 11:01:40;;;;;;;13.50;8.15;;;;;;;13.84;100.00;98393.94;5111133;28;20043;-75
2022/09/27 11:04:19;;;;;;;12.43;7.50;;;;;;;13.69;100.00;98402.50;5115962;27;20044;-75
2022/09/27 11:06:47;;;;;;;13.48;7.70;;;;;;;13.65;100.00;98411.06;5116103;28;20171;-76
2022/09/27 11:09:23;;;;;;;13.10;7.40;;;;;;;13.63;100.00;98413.94;5115949;28;20114;-77
2022/09/27 11:11:51;;;;;;;12.77;7.43;;;;;;;13.58;100.00;98406.19;5117541;28;20503;-75
2022/09/27 11:14:20;;;;;;;11.70;7.20;;;;;;;13.62;100.00;98413.06;5116257;28;20044;-76
2022/09/27 11:17:09;;;;;;;13.65;7.80;;;;;;;13.69;100.00;98397.06;5114481;28;20059;-76
2022/09/27 11:19:54;;;;;;;13.10;7.82;;;;;;;13.68;100.00;98399.94;5116320;28;20097;-76
2022/09/27 11:22:37;;;;;;;13.18;7.85;;;;;;;13.58;100.00;98402.66;5116211;27;20039;-75
2022/09/27 11:25:16;;;;;;;12.85;7.25;;;;;;;13.60;100.00;98398.78;5117638;27;20101;-75
2022/09/27 11:27:55;;;;;;;13.43;7.70;;;;;;;13.64;100.00;98398.50;5115916;27;20055;-75
2022/09/27 11:30:24;;;;;;;13.30;7.93;;;;;;;13.68;100.00;98399.94;5114650;27;20043;-75
2022/09/27 11:33:15;;;;;;;12.55;7.63;;;;;;;13.64;100.00;98404.78;5105461;28;20047;-75
2022/09/27 11:35:55;;;;;;;15.02;8.07;;;;;;;13.56;100.00;98415.50;5109305;28;20465;-75
2022/09/27 11:38:27;;;;;;;13.07;8.15;;;;;;;13.56;100.00;98407.34;5102015;28;20040;-75